Observations for REGGIO CALABRIA AFB, Italy (LICR)

LICR 201950Z 04006KT CAVOK 10/05 Q1025  
LICR 201850Z 04006KT CAVOK 11/05 Q1025  
LICR 201750Z 02009KT CAVOK 12/05 Q1024  
LICR 201650Z 36010KT 340V040 CAVOK 12/06 Q1023  
LICR 201550Z 36011KT CAVOK 14/05 Q1023  
LICR 201450Z 35014KT CAVOK 15/06 Q1023  
LICR 201350Z 35015KT CAVOK 15/06 Q1023  
LICR 201250Z 36014KT CAVOK 15/06 Q1022  
LICR 201150Z 35014KT CAVOK 16/06 Q1023  
LICR 201050Z 35015KT CAVOK 15/06 Q1023  
LICR 200950Z 35013KT CAVOK 15/05 Q1023  
LICR 200850Z 36009KT 320V050 CAVOK 14/05 Q1023  
LICR 200750Z 02009KT CAVOK 13/05 Q1024  
LICR 200650Z 02007KT CAVOK 12/05 Q1023  
LICR 200550Z 02007KT CAVOK 10/05 Q1023  
LICR 200457Z 02010KT CAVOK 10/05 Q1022
LICR 200450Z 02010KT CAVOK 10/05 Q1022  
LICR 192250Z 03005KT 350V060 CAVOK 08/02 Q1022  
LICR 192150Z 03004KT CAVOK 08/03 Q1022  
LICR 192050Z 04006KT CAVOK 08/03 Q1023  
LICR 191950Z 01006KT CAVOK 09/04 Q1023